createdAt,value
2019-03-01T00:09:57.337Z,88.64
2019-03-01T00:20:14.349Z,88.06
2019-03-01T00:30:40.749Z,87.47
2019-03-01T00:41:05.723Z,87.63
2019-03-01T00:51:10.952Z,87.69
2019-03-01T01:01:16.144Z,88.00
2019-03-01T01:11:21.449Z,87.39
2019-03-01T01:21:26.482Z,87.87
2019-03-01T01:31:31.645Z,87.98
2019-03-01T01:41:36.814Z,88.35
2019-03-01T01:51:41.909Z,88.39
2019-03-01T02:01:47.149Z,89.54
2019-03-01T02:11:53.762Z,89.42
2019-03-01T02:21:58.759Z,90.04
2019-03-01T02:32:03.947Z,88.35
2019-03-01T02:42:09.011Z,88.83
2019-03-01T02:52:14.185Z,89.12
2019-03-01T03:02:19.343Z,88.93
2019-03-01T03:12:24.759Z,89.81
2019-03-01T03:22:30.029Z,89.94
2019-03-01T03:32:35.153Z,89.42
2019-03-01T03:42:40.327Z,89.87
2019-03-01T03:52:45.453Z,89.14
2019-03-01T04:02:50.568Z,89.54
2019-03-01T04:12:55.632Z,89.03
2019-03-01T04:23:01.071Z,89.18
2019-03-01T04:33:05.964Z,89.56
2019-03-01T04:43:11.156Z,90.23
2019-03-01T04:53:16.640Z,90.17
2019-03-01T05:03:22.950Z,89.80
2019-03-01T05:13:28.193Z,89.89
2019-03-01T05:23:33.241Z,90.21
2019-03-01T05:33:38.450Z,89.76
2019-03-01T05:43:43.434Z,89.49
2019-03-01T05:53:48.745Z,89.54
2019-03-01T06:04:02.519Z,89.51
2019-03-01T06:14:42.570Z,88.85
2019-03-01T06:25:02.616Z,88.41
2019-03-01T06:35:25.611Z,87.42
2019-03-01T06:46:00.849Z,87.10
2019-03-01T06:56:06.879Z,86.64
2019-03-01T07:16:47.107Z,85.80
2019-03-01T07:26:52.264Z,84.94
2019-03-01T07:36:57.564Z,83.60
2019-03-01T07:47:03.030Z,83.84
2019-03-01T07:57:08.252Z,81.99
2019-03-01T08:07:13.637Z,80.80
2019-03-01T08:17:18.806Z,81.03
2019-03-01T08:27:25.308Z,81.08
2019-03-01T08:37:30.648Z,80.04
2019-03-01T08:47:35.875Z,78.41
2019-03-01T08:57:44.336Z,78.50
2019-03-01T09:07:47.901Z,77.03
2019-03-01T09:17:53.191Z,76.93
2019-03-01T09:27:58.315Z,74.38
2019-03-01T09:38:04.570Z,74.36
2019-03-01T09:48:12.199Z,72.48
2019-03-01T09:58:17.178Z,69.81
2019-03-01T10:08:22.117Z,66.99
2019-03-01T10:18:27.317Z,64.98
2019-03-01T10:28:32.336Z,61.72
2019-03-01T10:38:37.909Z,56.71
2019-03-01T10:48:43.055Z,47.63
2019-03-01T10:58:48.109Z,56.73
2019-03-01T11:08:53.435Z,55.78
2019-03-01T11:18:59.111Z,55.75
2019-03-01T11:29:05.078Z,56.66
2019-03-01T11:39:10.721Z,58.72
2019-03-01T11:49:15.868Z,58.34
2019-03-01T11:59:20.839Z,56.10
2019-03-01T12:09:25.939Z,51.93
2019-03-01T12:19:31.466Z,52.78
2019-03-01T12:29:36.559Z,55.65
2019-03-01T12:39:42.266Z,51.18
2019-03-01T12:49:48.864Z,54.07
2019-03-01T12:59:54.053Z,52.67
2019-03-01T13:10:03.383Z,55.61
2019-03-01T13:20:11.409Z,55.95
2019-03-01T13:30:27.767Z,59.53
2019-03-01T13:40:32.905Z,57.45
2019-03-01T13:50:41.458Z,58.69
2019-03-01T14:00:48.708Z,60.31
2019-03-01T14:10:52.921Z,60.94
2019-03-01T14:20:59.120Z,61.57
2019-03-01T14:31:07.496Z,61.83
2019-03-01T14:41:12.678Z,62.76
2019-03-01T14:51:17.864Z,63.41
2019-03-01T15:01:30.017Z,64.35
2019-03-01T15:11:35.683Z,64.54
2019-03-01T15:21:41.396Z,65.18
2019-03-01T15:31:46.684Z,64.56
2019-03-01T15:41:52.572Z,64.34
2019-03-01T15:51:58.173Z,65.61
2019-03-01T16:02:03.661Z,66.52
2019-03-01T16:12:09.254Z,67.84
2019-03-01T16:22:15.427Z,68.29
2019-03-01T16:32:21.773Z,69.47
2019-03-01T16:42:27.263Z,70.62
2019-03-01T16:52:32.975Z,71.23
2019-03-01T17:02:41.955Z,71.73
2019-03-01T17:12:48.792Z,72.52
2019-03-01T17:22:53.381Z,72.84
2019-03-01T17:32:58.886Z,74.42
2019-03-01T17:43:04.434Z,75.58
2019-03-01T17:53:10.459Z,77.02
2019-03-01T18:03:16.127Z,77.18
2019-03-01T18:13:21.737Z,78.84
2019-03-01T18:23:27.284Z,79.74
2019-03-01T18:33:32.801Z,80.52
2019-03-01T18:43:38.478Z,80.60
2019-03-01T18:53:45.539Z,81.19
2019-03-01T19:03:52.906Z,82.92
2019-03-01T19:14:01.597Z,82.92
2019-03-01T19:24:08.069Z,83.17
2019-03-01T19:34:18.724Z,84.14
2019-03-01T19:44:25.747Z,83.86
2019-03-01T19:54:32.308Z,84.57
2019-03-01T20:04:38.874Z,85.44
2019-03-01T20:14:44.563Z,85.67
2019-03-01T20:24:50.147Z,84.49
2019-03-01T20:34:55.679Z,85.39
2019-03-01T20:45:01.460Z,85.25
2019-03-01T20:55:10.170Z,85.77
2019-03-01T21:05:16.129Z,85.33
2019-03-01T21:15:22.269Z,85.29
2019-03-01T21:25:27.663Z,85.27
2019-03-01T21:35:33.488Z,86.71
2019-03-01T21:45:39.001Z,85.41
2019-03-01T21:55:44.719Z,85.98
2019-03-01T22:05:50.403Z,86.19
2019-03-01T22:16:00.713Z,85.48
2019-03-01T22:26:05.487Z,85.35
2019-03-01T22:36:11.081Z,86.27
2019-03-01T22:46:16.533Z,84.69
2019-03-01T22:56:22.623Z,84.64
2019-03-01T23:06:27.952Z,84.93
2019-03-01T23:16:33.312Z,83.82
2019-03-01T23:26:38.612Z,82.38
2019-03-01T23:36:44.667Z,81.65
2019-03-01T23:46:49.776Z,81.14
2019-03-01T23:56:54.988Z,80.47
